sensor_id;sensor_type;location;lat;lon;timestamp;P1;durP1;ratioP1;P2;durP2;ratioP2
18443;SDS011;9350;53.176;8.194;2023-07-29T00:01:13;16.67;;;9.25;;
18443;SDS011;9350;53.176;8.194;2023-07-29T00:03:39;11.07;;;8.68;;
18443;SDS011;9350;53.176;8.194;2023-07-29T00:06:06;17.25;;;10.02;;
18443;SDS011;9350;53.176;8.194;2023-07-29T00:08:33;17.90;;;9.07;;
18443;SDS011;9350;53.176;8.194;2023-07-29T00:11:01;15.48;;;8.85;;
18443;SDS011;9350;53.176;8.194;2023-07-29T00:13:28;13.27;;;7.97;;
18443;SDS011;9350;53.176;8.194;2023-07-29T00:15:55;14.88;;;8.25;;
18443;SDS011;9350;53.176;8.194;2023-07-29T00:18:21;14.57;;;8.95;;
18443;SDS011;9350;53.176;8.194;2023-07-29T00:20:48;10.95;;;7.70;;
18443;SDS011;9350;53.176;8.194;2023-07-29T00:23:16;11.20;;;7.93;;
18443;SDS011;9350;53.176;8.194;2023-07-29T00:25:44;14.30;;;8.25;;
18443;SDS011;9350;53.176;8.194;2023-07-29T00:28:12;14.43;;;7.82;;
18443;SDS011;9350;53.176;8.194;2023-07-29T00:30:39;10.52;;;7.60;;
18443;SDS011;9350;53.176;8.194;2023-07-29T00:33:06;10.48;;;6.95;;
18443;SDS011;9350;53.176;8.194;2023-07-29T00:35:32;11.43;;;7.95;;
18443;SDS011;9350;53.176;8.194;2023-07-29T00:38:00;11.48;;;7.75;;
18443;SDS011;9350;53.176;8.194;2023-07-29T00:40:27;12.57;;;8.27;;
18443;SDS011;9350;53.176;8.194;2023-07-29T00:42:55;14.27;;;7.88;;
18443;SDS011;9350;53.176;8.194;2023-07-29T00:45:23;13.13;;;7.82;;
18443;SDS011;9350;53.176;8.194;2023-07-29T00:47:51;10.98;;;7.47;;
18443;SDS011;9350;53.176;8.194;2023-07-29T00:50:18;13.63;;;7.78;;
18443;SDS011;9350;53.176;8.194;2023-07-29T00:52:45;11.38;;;8.07;;
18443;SDS011;9350;53.176;8.194;2023-07-29T00:55:12;9.70;;;7.45;;
18443;SDS011;9350;53.176;8.194;2023-07-29T00:57:39;11.70;;;7.60;;
18443;SDS011;9350;53.176;8.194;2023-07-29T01:00:06;11.50;;;7.22;;
18443;SDS011;9350;53.176;8.194;2023-07-29T01:02:35;12.23;;;6.80;;
18443;SDS011;9350;53.176;8.194;2023-07-29T01:05:02;9.55;;;7.13;;
18443;SDS011;9350;53.176;8.194;2023-07-29T01:07:30;12.88;;;7.40;;
18443;SDS011;9350;53.176;8.194;2023-07-29T01:10:02;11.00;;;6.97;;
18443;SDS011;9350;53.176;8.194;2023-07-29T01:12:35;11.05;;;7.28;;
18443;SDS011;9350;53.176;8.194;2023-07-29T01:15:09;9.55;;;6.85;;
18443;SDS011;9350;53.176;8.194;2023-07-29T01:17:44;10.55;;;7.18;;
18443;SDS011;9350;53.176;8.194;2023-07-29T01:20:14;9.70;;;6.70;;
18443;SDS011;9350;53.176;8.194;2023-07-29T01:22:42;11.57;;;6.63;;
18443;SDS011;9350;53.176;8.194;2023-07-29T01:25:10;10.95;;;6.80;;
18443;SDS011;9350;53.176;8.194;2023-07-29T01:27:37;10.95;;;6.75;;
18443;SDS011;9350;53.176;8.194;2023-07-29T01:30:04;16.23;;;7.50;;
18443;SDS011;9350;53.176;8.194;2023-07-29T01:32:34;12.95;;;7.25;;
18443;SDS011;9350;53.176;8.194;2023-07-29T01:35:06;10.48;;;7.38;;
18443;SDS011;9350;53.176;8.194;2023-07-29T01:37:41;11.85;;;7.00;;
18443;SDS011;9350;53.176;8.194;2023-07-29T01:40:11;14.60;;;7.53;;
18443;SDS011;9350;53.176;8.194;2023-07-29T01:42:39;10.15;;;6.75;;
18443;SDS011;9350;53.176;8.194;2023-07-29T01:45:06;11.07;;;7.57;;
18443;SDS011;9350;53.176;8.194;2023-07-29T01:47:33;11.23;;;7.15;;
18443;SDS011;9350;53.176;8.194;2023-07-29T01:49:59;11.38;;;7.28;;
18443;SDS011;9350;53.176;8.194;2023-07-29T01:52:26;14.27;;;7.45;;
18443;SDS011;9350;53.176;8.194;2023-07-29T01:54:53;13.32;;;7.68;;
18443;SDS011;9350;53.176;8.194;2023-07-29T01:57:21;15.13;;;7.80;;
18443;SDS011;9350;53.176;8.194;2023-07-29T01:59:47;11.43;;;6.97;;
18443;SDS011;9350;53.176;8.194;2023-07-29T02:02:14;12.50;;;7.65;;
18443;SDS011;9350;53.176;8.194;2023-07-29T02:04:41;10.93;;;8.10;;
18443;SDS011;9350;53.176;8.194;2023-07-29T02:07:08;11.43;;;7.85;;
18443;SDS011;9350;53.176;8.194;2023-07-29T02:09:34;14.23;;;8.18;;
18443;SDS011;9350;53.176;8.194;2023-07-29T02:12:01;16.50;;;8.90;;
18443;SDS011;9350;53.176;8.194;2023-07-29T02:14:29;15.73;;;9.32;;
18443;SDS011;9350;53.176;8.194;2023-07-29T02:16:56;14.15;;;9.60;;
18443;SDS011;9350;53.176;8.194;2023-07-29T02:19:22;13.98;;;9.13;;
18443;SDS011;9350;53.176;8.194;2023-07-29T02:21:49;14.13;;;9.32;;
18443;SDS011;9350;53.176;8.194;2023-07-29T02:24:16;13.80;;;9.52;;
18443;SDS011;9350;53.176;8.194;2023-07-29T02:26:42;14.80;;;9.85;;
18443;SDS011;9350;53.176;8.194;2023-07-29T02:29:09;13.45;;;9.20;;
18443;SDS011;9350;53.176;8.194;2023-07-29T02:31:37;14.82;;;9.75;;
18443;SDS011;9350;53.176;8.194;2023-07-29T02:34:04;15.27;;;9.77;;
18443;SDS011;9350;53.176;8.194;2023-07-29T02:36:31;14.57;;;10.27;;
18443;SDS011;9350;53.176;8.194;2023-07-29T02:38:57;14.57;;;10.65;;
18443;SDS011;9350;53.176;8.194;2023-07-29T02:41:24;19.23;;;11.10;;
18443;SDS011;9350;53.176;8.194;2023-07-29T02:43:51;17.08;;;10.80;;
18443;SDS011;9350;53.176;8.194;2023-07-29T02:46:17;14.75;;;10.00;;
18443;SDS011;9350;53.176;8.194;2023-07-29T02:48:45;12.38;;;9.52;;
18443;SDS011;9350;53.176;8.194;2023-07-29T02:51:12;19.05;;;10.23;;
18443;SDS011;9350;53.176;8.194;2023-07-29T02:53:38;14.88;;;10.13;;
18443;SDS011;9350;53.176;8.194;2023-07-29T02:56:05;17.02;;;10.10;;
18443;SDS011;9350;53.176;8.194;2023-07-29T02:58:34;18.33;;;10.40;;
18443;SDS011;9350;53.176;8.194;2023-07-29T03:01:01;15.73;;;11.55;;
18443;SDS011;9350;53.176;8.194;2023-07-29T03:03:28;14.85;;;11.50;;
18443;SDS011;9350;53.176;8.194;2023-07-29T03:05:58;14.32;;;11.57;;
18443;SDS011;9350;53.176;8.194;2023-07-29T03:08:26;15.07;;;10.45;;
18443;SDS011;9350;53.176;8.194;2023-07-29T03:10:52;14.52;;;11.43;;
18443;SDS011;9350;53.176;8.194;2023-07-29T03:13:19;13.57;;;11.18;;
18443;SDS011;9350;53.176;8.194;2023-07-29T03:15:46;13.10;;;10.82;;
18443;SDS011;9350;53.176;8.194;2023-07-29T03:18:13;13.25;;;10.65;;
18443;SDS011;9350;53.176;8.194;2023-07-29T03:20:40;16.75;;;10.70;;
18443;SDS011;9350;53.176;8.194;2023-07-29T03:23:09;17.40;;;11.90;;
18443;SDS011;9350;53.176;8.194;2023-07-29T03:25:35;15.13;;;11.77;;
18443;SDS011;9350;53.176;8.194;2023-07-29T03:28:02;14.60;;;11.23;;
18443;SDS011;9350;53.176;8.194;2023-07-29T03:30:29;17.10;;;11.95;;
18443;SDS011;9350;53.176;8.194;2023-07-29T03:32:55;18.63;;;12.07;;
18443;SDS011;9350;53.176;8.194;2023-07-29T03:35:22;14.95;;;11.65;;
18443;SDS011;9350;53.176;8.194;2023-07-29T03:37:49;17.15;;;12.45;;
18443;SDS011;9350;53.176;8.194;2023-07-29T03:40:17;16.55;;;12.18;;
18443;SDS011;9350;53.176;8.194;2023-07-29T03:42:44;17.05;;;12.38;;
18443;SDS011;9350;53.176;8.194;2023-07-29T03:45:11;16.42;;;12.60;;
18443;SDS011;9350;53.176;8.194;2023-07-29T03:47:37;15.95;;;11.82;;
18443;SDS011;9350;53.176;8.194;2023-07-29T03:50:05;16.98;;;12.43;;
18443;SDS011;9350;53.176;8.194;2023-07-29T03:52:32;15.68;;;11.50;;
18443;SDS011;9350;53.176;8.194;2023-07-29T03:54:59;18.73;;;11.48;;
18443;SDS011;9350;53.176;8.194;2023-07-29T03:57:27;15.93;;;12.52;;
18443;SDS011;9350;53.176;8.194;2023-07-29T03:59:54;16.90;;;12.88;;
18443;SDS011;9350;53.176;8.194;2023-07-29T04:02:21;17.25;;;13.25;;
18443;SDS011;9350;53.176;8.194;2023-07-29T04:04:48;15.13;;;11.85;;
18443;SDS011;9350;53.176;8.194;2023-07-29T04:07:14;16.48;;;11.52;;
18443;SDS011;9350;53.176;8.194;2023-07-29T04:09:41;17.45;;;11.82;;
18443;SDS011;9350;53.176;8.194;2023-07-29T04:12:08;15.77;;;11.20;;
18443;SDS011;9350;53.176;8.194;2023-07-29T04:14:37;17.40;;;11.88;;
18443;SDS011;9350;53.176;8.194;2023-07-29T04:17:04;18.80;;;12.25;;
18443;SDS011;9350;53.176;8.194;2023-07-29T04:19:31;15.60;;;11.82;;
18443;SDS011;9350;53.176;8.194;2023-07-29T04:21:57;17.55;;;12.88;;
18443;SDS011;9350;53.176;8.194;2023-07-29T04:24:24;19.88;;;12.45;;
18443;SDS011;9350;53.176;8.194;2023-07-29T04:26:51;17.17;;;12.48;;
18443;SDS011;9350;53.176;8.194;2023-07-29T04:29:17;23.13;;;13.18;;
18443;SDS011;9350;53.176;8.194;2023-07-29T04:31:45;18.50;;;13.07;;
18443;SDS011;9350;53.176;8.194;2023-07-29T04:34:12;21.90;;;13.60;;
18443;SDS011;9350;53.176;8.194;2023-07-29T04:36:39;22.00;;;13.50;;
18443;SDS011;9350;53.176;8.194;2023-07-29T04:39:05;19.02;;;13.52;;
18443;SDS011;9350;53.176;8.194;2023-07-29T04:41:32;18.65;;;14.18;;
18443;SDS011;9350;53.176;8.194;2023-07-29T04:43:59;21.27;;;14.07;;
18443;SDS011;9350;53.176;8.194;2023-07-29T04:46:26;21.25;;;14.57;;
18443;SDS011;9350;53.176;8.194;2023-07-29T04:48:54;22.73;;;15.73;;
18443;SDS011;9350;53.176;8.194;2023-07-29T04:51:21;21.48;;;15.20;;
18443;SDS011;9350;53.176;8.194;2023-07-29T04:53:47;21.50;;;14.75;;
18443;SDS011;9350;53.176;8.194;2023-07-29T04:56:14;23.33;;;15.65;;
18443;SDS011;9350;53.176;8.194;2023-07-29T04:58:41;23.75;;;15.02;;
18443;SDS011;9350;53.176;8.194;2023-07-29T05:01:07;22.08;;;15.43;;
18443;SDS011;9350;53.176;8.194;2023-07-29T05:03:34;25.05;;;15.07;;
18443;SDS011;9350;53.176;8.194;2023-07-29T05:06:06;24.45;;;15.55;;
18443;SDS011;9350;53.176;8.194;2023-07-29T05:08:32;25.20;;;16.50;;
18443;SDS011;9350;53.176;8.194;2023-07-29T05:10:59;25.02;;;16.35;;
18443;SDS011;9350;53.176;8.194;2023-07-29T05:13:26;26.88;;;16.27;;
18443;SDS011;9350;53.176;8.194;2023-07-29T05:15:53;23.90;;;15.40;;
18443;SDS011;9350;53.176;8.194;2023-07-29T05:18:20;25.00;;;15.45;;
18443;SDS011;9350;53.176;8.194;2023-07-29T05:20:46;25.63;;;16.02;;
18443;SDS011;9350;53.176;8.194;2023-07-29T05:23:15;26.02;;;15.75;;
18443;SDS011;9350;53.176;8.194;2023-07-29T05:25:41;24.23;;;15.07;;
18443;SDS011;9350;53.176;8.194;2023-07-29T05:28:08;24.05;;;15.65;;
18443;SDS011;9350;53.176;8.194;2023-07-29T05:30:35;23.38;;;16.38;;
18443;SDS011;9350;53.176;8.194;2023-07-29T05:33:02;24.95;;;15.77;;
18443;SDS011;9350;53.176;8.194;2023-07-29T05:35:29;26.67;;;16.10;;
18443;SDS011;9350;53.176;8.194;2023-07-29T05:37:56;23.65;;;15.85;;
18443;SDS011;9350;53.176;8.194;2023-07-29T05:40:24;23.98;;;15.48;;
18443;SDS011;9350;53.176;8.194;2023-07-29T05:42:51;25.27;;;14.85;;
18443;SDS011;9350;53.176;8.194;2023-07-29T05:45:17;22.80;;;14.35;;
18443;SDS011;9350;53.176;8.194;2023-07-29T05:47:44;26.70;;;15.85;;
18443;SDS011;9350;53.176;8.194;2023-07-29T05:50:11;26.52;;;14.95;;
18443;SDS011;9350;53.176;8.194;2023-07-29T05:52:38;25.50;;;15.30;;
18443;SDS011;9350;53.176;8.194;2023-07-29T05:55:05;24.67;;;15.73;;
18443;SDS011;9350;53.176;8.194;2023-07-29T05:57:33;20.50;;;14.52;;
18443;SDS011;9350;53.176;8.194;2023-07-29T06:00:00;26.02;;;14.77;;
18443;SDS011;9350;53.176;8.194;2023-07-29T06:02:26;21.83;;;14.70;;
18443;SDS011;9350;53.176;8.194;2023-07-29T06:04:53;23.38;;;13.55;;
18443;SDS011;9350;53.176;8.194;2023-07-29T06:07:20;24.13;;;15.20;;
18443;SDS011;9350;53.176;8.194;2023-07-29T06:09:47;19.00;;;13.57;;
18443;SDS011;9350;53.176;8.194;2023-07-29T06:12:13;24.20;;;13.68;;
18443;SDS011;9350;53.176;8.194;2023-07-29T06:14:41;22.05;;;13.30;;
18443;SDS011;9350;53.176;8.194;2023-07-29T06:17:08;20.95;;;13.50;;
18443;SDS011;9350;53.176;8.194;2023-07-29T06:19:36;20.38;;;12.68;;
18443;SDS011;9350;53.176;8.194;2023-07-29T06:22:03;21.92;;;13.15;;
18443;SDS011;9350;53.176;8.194;2023-07-29T06:24:30;18.52;;;12.57;;
18443;SDS011;9350;53.176;8.194;2023-07-29T06:26:57;22.05;;;12.70;;
18443;SDS011;9350;53.176;8.194;2023-07-29T06:29:24;21.73;;;13.02;;
18443;SDS011;9350;53.176;8.194;2023-07-29T06:31:52;18.15;;;11.52;;
18443;SDS011;9350;53.176;8.194;2023-07-29T06:34:19;19.05;;;11.25;;
18443;SDS011;9350;53.176;8.194;2023-07-29T06:36:46;18.40;;;10.85;;
18443;SDS011;9350;53.176;8.194;2023-07-29T06:39:12;16.38;;;11.07;;
18443;SDS011;9350;53.176;8.194;2023-07-29T06:41:39;13.20;;;10.38;;
18443;SDS011;9350;53.176;8.194;2023-07-29T06:44:06;14.25;;;10.02;;
18443;SDS011;9350;53.176;8.194;2023-07-29T06:46:33;18.17;;;11.07;;
18443;SDS011;9350;53.176;8.194;2023-07-29T06:49:01;14.55;;;10.40;;
18443;SDS011;9350;53.176;8.194;2023-07-29T06:51:27;13.20;;;9.98;;
18443;SDS011;9350;53.176;8.194;2023-07-29T06:53:57;16.10;;;9.65;;
18443;SDS011;9350;53.176;8.194;2023-07-29T06:56:24;14.60;;;8.80;;
18443;SDS011;9350;53.176;8.194;2023-07-29T06:58:50;13.82;;;8.90;;
18443;SDS011;9350;53.176;8.194;2023-07-29T07:01:17;12.32;;;8.43;;
18443;SDS011;9350;53.176;8.194;2023-07-29T07:03:44;12.43;;;8.75;;
18443;SDS011;9350;53.176;8.194;2023-07-29T07:06:12;12.88;;;7.97;;
18443;SDS011;9350;53.176;8.194;2023-07-29T07:08:38;12.88;;;7.57;;
18443;SDS011;9350;53.176;8.194;2023-07-29T07:11:06;9.73;;;7.70;;
18443;SDS011;9350;53.176;8.194;2023-07-29T07:13:33;10.23;;;6.93;;
18443;SDS011;9350;53.176;8.194;2023-07-29T07:16:00;14.80;;;7.25;;
18443;SDS011;9350;53.176;8.194;2023-07-29T07:18:27;10.93;;;7.38;;
18443;SDS011;9350;53.176;8.194;2023-07-29T07:20:53;9.68;;;7.22;;
18443;SDS011;9350;53.176;8.194;2023-07-29T07:23:21;9.88;;;6.10;;
18443;SDS011;9350;53.176;8.194;2023-07-29T07:25:48;8.00;;;6.00;;
18443;SDS011;9350;53.176;8.194;2023-07-29T07:28:15;9.18;;;6.10;;
18443;SDS011;9350;53.176;8.194;2023-07-29T07:30:42;8.05;;;6.20;;
18443;SDS011;9350;53.176;8.194;2023-07-29T07:33:08;6.72;;;5.70;;
18443;SDS011;9350;53.176;8.194;2023-07-29T07:35:35;9.10;;;5.53;;
18443;SDS011;9350;53.176;8.194;2023-07-29T07:38:02;7.43;;;5.35;;
18443;SDS011;9350;53.176;8.194;2023-07-29T07:40:30;7.85;;;5.50;;
18443;SDS011;9350;53.176;8.194;2023-07-29T07:42:57;8.20;;;4.93;;
18443;SDS011;9350;53.176;8.194;2023-07-29T07:45:24;9.15;;;5.25;;
18443;SDS011;9350;53.176;8.194;2023-07-29T07:47:51;5.50;;;4.53;;
18443;SDS011;9350;53.176;8.194;2023-07-29T07:50:18;8.18;;;4.68;;
18443;SDS011;9350;53.176;8.194;2023-07-29T07:52:45;5.13;;;4.15;;
18443;SDS011;9350;53.176;8.194;2023-07-29T07:55:12;4.60;;;4.07;;
18443;SDS011;9350;53.176;8.194;2023-07-29T07:57:40;11.32;;;4.70;;
18443;SDS011;9350;53.176;8.194;2023-07-29T08:00:07;7.03;;;4.80;;
18443;SDS011;9350;53.176;8.194;2023-07-29T08:02:35;5.18;;;4.45;;
18443;SDS011;9350;53.176;8.194;2023-07-29T08:05:02;4.80;;;3.80;;
18443;SDS011;9350;53.176;8.194;2023-07-29T08:07:29;4.15;;;3.78;;
18443;SDS011;9350;53.176;8.194;2023-07-29T08:09:56;4.35;;;3.88;;
18443;SDS011;9350;53.176;8.194;2023-07-29T08:12:22;5.93;;;3.45;;
18443;SDS011;9350;53.176;8.194;2023-07-29T08:14:50;6.03;;;3.45;;
18443;SDS011;9350;53.176;8.194;2023-07-29T08:17:17;4.20;;;3.78;;
18443;SDS011;9350;53.176;8.194;2023-07-29T08:19:44;4.65;;;3.40;;
18443;SDS011;9350;53.176;8.194;2023-07-29T08:22:11;3.80;;;3.47;;
18443;SDS011;9350;53.176;8.194;2023-07-29T08:24:38;4.90;;;3.53;;
18443;SDS011;9350;53.176;8.194;2023-07-29T08:27:06;4.38;;;3.60;;
18443;SDS011;9350;53.176;8.194;2023-07-29T08:29:32;3.42;;;3.13;;
18443;SDS011;9350;53.176;8.194;2023-07-29T08:32:00;5.35;;;3.03;;
18443;SDS011;9350;53.176;8.194;2023-07-29T08:34:27;7.25;;;2.75;;
18443;SDS011;9350;53.176;8.194;2023-07-29T08:36:54;3.13;;;2.83;;
18443;SDS011;9350;53.176;8.194;2023-07-29T08:39:20;7.28;;;3.10;;
18443;SDS011;9350;53.176;8.194;2023-07-29T08:41:49;4.13;;;3.17;;
18443;SDS011;9350;53.176;8.194;2023-07-29T08:44:20;5.40;;;3.28;;
18443;SDS011;9350;53.176;8.194;2023-07-29T08:46:48;5.45;;;3.30;;
18443;SDS011;9350;53.176;8.194;2023-07-29T08:49:16;4.30;;;3.25;;
18443;SDS011;9350;53.176;8.194;2023-07-29T08:51:45;4.95;;;3.10;;
18443;SDS011;9350;53.176;8.194;2023-07-29T08:54:12;6.00;;;3.50;;
18443;SDS011;9350;53.176;8.194;2023-07-29T08:56:40;5.38;;;3.28;;
18443;SDS011;9350;53.176;8.194;2023-07-29T08:59:07;4.72;;;3.70;;
18443;SDS011;9350;53.176;8.194;2023-07-29T09:01:35;14.02;;;4.35;;
18443;SDS011;9350;53.176;8.194;2023-07-29T09:04:02;9.00;;;5.07;;
18443;SDS011;9350;53.176;8.194;2023-07-29T09:06:31;6.40;;;4.30;;
18443;SDS011;9350;53.176;8.194;2023-07-29T09:08:58;6.97;;;4.13;;
18443;SDS011;9350;53.176;8.194;2023-07-29T09:11:26;5.18;;;3.83;;
18443;SDS011;9350;53.176;8.194;2023-07-29T09:13:53;5.38;;;4.38;;
18443;SDS011;9350;53.176;8.194;2023-07-29T09:16:19;6.85;;;3.70;;
18443;SDS011;9350;53.176;8.194;2023-07-29T09:18:47;6.55;;;3.55;;
18443;SDS011;9350;53.176;8.194;2023-07-29T09:21:15;5.40;;;3.58;;
18443;SDS011;9350;53.176;8.194;2023-07-29T09:23:44;5.57;;;3.00;;
18443;SDS011;9350;53.176;8.194;2023-07-29T09:26:11;3.63;;;3.17;;
18443;SDS011;9350;53.176;8.194;2023-07-29T09:28:38;2.92;;;2.50;;
18443;SDS011;9350;53.176;8.194;2023-07-29T09:31:06;5.97;;;2.80;;
18443;SDS011;9350;53.176;8.194;2023-07-29T09:33:33;3.00;;;2.40;;
18443;SDS011;9350;53.176;8.194;2023-07-29T09:36:02;2.45;;;2.00;;
18443;SDS011;9350;53.176;8.194;2023-07-29T09:38:29;2.80;;;2.55;;
18443;SDS011;9350;53.176;8.194;2023-07-29T09:40:57;4.78;;;2.72;;
18443;SDS011;9350;53.176;8.194;2023-07-29T09:43:29;3.83;;;2.63;;
18443;SDS011;9350;53.176;8.194;2023-07-29T09:45:59;2.97;;;2.33;;
18443;SDS011;9350;53.176;8.194;2023-07-29T09:48:25;2.42;;;1.77;;
18443;SDS011;9350;53.176;8.194;2023-07-29T09:50:53;2.05;;;1.88;;
18443;SDS011;9350;53.176;8.194;2023-07-29T09:53:20;3.67;;;2.13;;
18443;SDS011;9350;53.176;8.194;2023-07-29T09:55:47;5.30;;;2.15;;
18443;SDS011;9350;53.176;8.194;2023-07-29T09:58:16;4.32;;;2.38;;
18443;SDS011;9350;53.176;8.194;2023-07-29T10:00:52;2.22;;;2.10;;
18443;SDS011;9350;53.176;8.194;2023-07-29T10:03:18;2.20;;;2.00;;
18443;SDS011;9350;53.176;8.194;2023-07-29T10:05:47;3.35;;;1.92;;
18443;SDS011;9350;53.176;8.194;2023-07-29T10:08:14;2.63;;;1.98;;
18443;SDS011;9350;53.176;8.194;2023-07-29T10:10:41;2.20;;;1.90;;
18443;SDS011;9350;53.176;8.194;2023-07-29T10:13:08;3.78;;;1.80;;
18443;SDS011;9350;53.176;8.194;2023-07-29T10:15:37;1.90;;;1.63;;
18443;SDS011;9350;53.176;8.194;2023-07-29T10:18:04;2.85;;;1.90;;
18443;SDS011;9350;53.176;8.194;2023-07-29T10:20:31;1.98;;;1.88;;
18443;SDS011;9350;53.176;8.194;2023-07-29T10:22:59;5.78;;;1.90;;
18443;SDS011;9350;53.176;8.194;2023-07-29T10:25:34;3.72;;;1.80;;
18443;SDS011;9350;53.176;8.194;2023-07-29T10:28:05;1.80;;;1.70;;
18443;SDS011;9350;53.176;8.194;2023-07-29T10:30:33;2.55;;;2.35;;
18443;SDS011;9350;53.176;8.194;2023-07-29T10:33:03;3.50;;;1.70;;
18443;SDS011;9350;53.176;8.194;2023-07-29T10:35:31;2.33;;;2.05;;
18443;SDS011;9350;53.176;8.194;2023-07-29T10:37:59;4.03;;;2.38;;
18443;SDS011;9350;53.176;8.194;2023-07-29T10:40:28;2.25;;;2.05;;
18443;SDS011;9350;53.176;8.194;2023-07-29T10:43:10;2.28;;;1.70;;
18443;SDS011;9350;53.176;8.194;2023-07-29T10:45:40;4.80;;;2.20;;
18443;SDS011;9350;53.176;8.194;2023-07-29T10:48:11;3.88;;;2.25;;
18443;SDS011;9350;53.176;8.194;2023-07-29T10:50:39;6.43;;;2.10;;
18443;SDS011;9350;53.176;8.194;2023-07-29T10:53:06;2.30;;;2.10;;
18443;SDS011;9350;53.176;8.194;2023-07-29T10:55:33;5.07;;;2.30;;
18443;SDS011;9350;53.176;8.194;2023-07-29T10:58:08;2.58;;;2.05;;
18443;SDS011;9350;53.176;8.194;2023-07-29T11:00:40;2.38;;;2.10;;
18443;SDS011;9350;53.176;8.194;2023-07-29T11:03:08;3.65;;;2.40;;
18443;SDS011;9350;53.176;8.194;2023-07-29T11:08:30;2.63;;;2.30;;
18443;SDS011;9350;53.176;8.194;2023-07-29T11:11:00;6.18;;;2.03;;
18443;SDS011;9350;53.176;8.194;2023-07-29T11:13:28;2.35;;;2.15;;
18443;SDS011;9350;53.176;8.194;2023-07-29T11:15:56;3.38;;;2.15;;
18443;SDS011;9350;53.176;8.194;2023-07-29T11:18:26;3.88;;;2.20;;
18443;SDS011;9350;53.176;8.194;2023-07-29T11:20:55;3.00;;;2.35;;
18443;SDS011;9350;53.176;8.194;2023-07-29T11:23:28;3.47;;;2.42;;
18443;SDS011;9350;53.176;8.194;2023-07-29T11:25:58;3.35;;;2.40;;
18443;SDS011;9350;53.176;8.194;2023-07-29T11:28:26;2.20;;;1.77;;
18443;SDS011;9350;53.176;8.194;2023-07-29T11:30:54;2.65;;;2.10;;
18443;SDS011;9350;53.176;8.194;2023-07-29T11:33:22;3.65;;;2.20;;
18443;SDS011;9350;53.176;8.194;2023-07-29T11:35:50;2.38;;;2.20;;
18443;SDS011;9350;53.176;8.194;2023-07-29T11:38:18;4.25;;;2.08;;
18443;SDS011;9350;53.176;8.194;2023-07-29T11:40:58;3.90;;;2.42;;
18443;SDS011;9350;53.176;8.194;2023-07-29T11:43:25;3.53;;;2.20;;
18443;SDS011;9350;53.176;8.194;2023-07-29T11:45:52;2.65;;;2.08;;
18443;SDS011;9350;53.176;8.194;2023-07-29T11:48:26;3.58;;;2.47;;
18443;SDS011;9350;53.176;8.194;2023-07-29T11:50:53;3.55;;;2.30;;
18443;SDS011;9350;53.176;8.194;2023-07-29T11:53:20;2.83;;;2.28;;
18443;SDS011;9350;53.176;8.194;2023-07-29T11:55:49;3.00;;;2.13;;
18443;SDS011;9350;53.176;8.194;2023-07-29T11:58:19;2.08;;;1.95;;
18443;SDS011;9350;53.176;8.194;2023-07-29T12:00:46;4.97;;;2.13;;
18443;SDS011;9350;53.176;8.194;2023-07-29T12:03:14;3.40;;;2.03;;
18443;SDS011;9350;53.176;8.194;2023-07-29T12:05:42;4.88;;;1.85;;
18443;SDS011;9350;53.176;8.194;2023-07-29T12:08:10;2.33;;;1.73;;
18443;SDS011;9350;53.176;8.194;2023-07-29T12:10:37;3.40;;;1.92;;
18443;SDS011;9350;53.176;8.194;2023-07-29T12:13:04;5.03;;;2.00;;
18443;SDS011;9350;53.176;8.194;2023-07-29T12:15:32;2.05;;;1.83;;
18443;SDS011;9350;53.176;8.194;2023-07-29T12:17:59;2.08;;;1.98;;
18443;SDS011;9350;53.176;8.194;2023-07-29T12:20:26;3.28;;;2.10;;
18443;SDS011;9350;53.176;8.194;2023-07-29T12:22:55;3.13;;;1.67;;
18443;SDS011;9350;53.176;8.194;2023-07-29T12:25:23;2.15;;;1.90;;
18443;SDS011;9350;53.176;8.194;2023-07-29T12:27:50;2.60;;;2.20;;
18443;SDS011;9350;53.176;8.194;2023-07-29T12:30:19;2.53;;;1.67;;
18443;SDS011;9350;53.176;8.194;2023-07-29T12:32:48;3.75;;;2.00;;
18443;SDS011;9350;53.176;8.194;2023-07-29T12:35:14;5.30;;;1.80;;
18443;SDS011;9350;53.176;8.194;2023-07-29T12:37:41;3.35;;;1.63;;
18443;SDS011;9350;53.176;8.194;2023-07-29T12:40:19;2.10;;;1.90;;
18443;SDS011;9350;53.176;8.194;2023-07-29T12:42:47;3.25;;;1.70;;
18443;SDS011;9350;53.176;8.194;2023-07-29T12:45:15;2.08;;;1.88;;
18443;SDS011;9350;53.176;8.194;2023-07-29T12:47:42;4.80;;;1.90;;
18443;SDS011;9350;53.176;8.194;2023-07-29T12:50:10;4.28;;;1.77;;
18443;SDS011;9350;53.176;8.194;2023-07-29T12:52:37;2.15;;;1.88;;
18443;SDS011;9350;53.176;8.194;2023-07-29T12:55:04;2.33;;;1.60;;
18443;SDS011;9350;53.176;8.194;2023-07-29T12:57:33;1.60;;;1.50;;
18443;SDS011;9350;53.176;8.194;2023-07-29T13:00:00;3.20;;;1.80;;
18443;SDS011;9350;53.176;8.194;2023-07-29T13:02:28;2.20;;;1.52;;
18443;SDS011;9350;53.176;8.194;2023-07-29T13:04:55;1.65;;;1.42;;
18443;SDS011;9350;53.176;8.194;2023-07-29T13:07:23;2.25;;;1.48;;
18443;SDS011;9350;53.176;8.194;2023-07-29T13:09:50;2.47;;;1.55;;
18443;SDS011;9350;53.176;8.194;2023-07-29T13:12:16;1.92;;;1.55;;
18443;SDS011;9350;53.176;8.194;2023-07-29T13:14:43;10.52;;;1.70;;
18443;SDS011;9350;53.176;8.194;2023-07-29T13:17:10;4.03;;;1.65;;
18443;SDS011;9350;53.176;8.194;2023-07-29T13:19:36;1.55;;;1.40;;
18443;SDS011;9350;53.176;8.194;2023-07-29T13:22:03;3.22;;;1.50;;
18443;SDS011;9350;53.176;8.194;2023-07-29T13:24:31;4.38;;;1.70;;
18443;SDS011;9350;53.176;8.194;2023-07-29T13:26:58;1.58;;;1.50;;
18443;SDS011;9350;53.176;8.194;2023-07-29T13:29:25;2.60;;;1.67;;
18443;SDS011;9350;53.176;8.194;2023-07-29T13:31:51;1.73;;;1.50;;
18443;SDS011;9350;53.176;8.194;2023-07-29T13:34:18;3.10;;;1.45;;
18443;SDS011;9350;53.176;8.194;2023-07-29T13:36:45;5.25;;;2.00;;
18443;SDS011;9350;53.176;8.194;2023-07-29T13:39:11;11.10;;;3.75;;
18443;SDS011;9350;53.176;8.194;2023-07-29T13:41:40;9.57;;;3.63;;
18443;SDS011;9350;53.176;8.194;2023-07-29T13:44:06;7.22;;;3.20;;
18443;SDS011;9350;53.176;8.194;2023-07-29T13:46:33;4.82;;;2.75;;
18443;SDS011;9350;53.176;8.194;2023-07-29T13:49:00;2.70;;;2.15;;
18443;SDS011;9350;53.176;8.194;2023-07-29T13:51:27;2.67;;;2.10;;
18443;SDS011;9350;53.176;8.194;2023-07-29T13:53:53;3.35;;;2.15;;
18443;SDS011;9350;53.176;8.194;2023-07-29T13:56:21;2.85;;;2.63;;
18443;SDS011;9350;53.176;8.194;2023-07-29T13:58:49;3.33;;;2.75;;
18443;SDS011;9350;53.176;8.194;2023-07-29T14:01:16;6.60;;;3.22;;
18443;SDS011;9350;53.176;8.194;2023-07-29T14:03:42;3.80;;;2.65;;
18443;SDS011;9350;53.176;8.194;2023-07-29T14:06:09;2.78;;;2.58;;
18443;SDS011;9350;53.176;8.194;2023-07-29T14:08:36;5.18;;;2.72;;
18443;SDS011;9350;53.176;8.194;2023-07-29T14:11:05;3.28;;;3.03;;
18443;SDS011;9350;53.176;8.194;2023-07-29T14:13:32;3.30;;;2.78;;
18443;SDS011;9350;53.176;8.194;2023-07-29T14:16:01;4.10;;;3.70;;
18443;SDS011;9350;53.176;8.194;2023-07-29T14:18:28;6.20;;;4.18;;
18443;SDS011;9350;53.176;8.194;2023-07-29T14:20:54;5.40;;;3.20;;
18443;SDS011;9350;53.176;8.194;2023-07-29T14:23:21;6.72;;;3.70;;
18443;SDS011;9350;53.176;8.194;2023-07-29T14:25:48;4.20;;;3.30;;
18443;SDS011;9350;53.176;8.194;2023-07-29T14:28:14;8.68;;;3.88;;
18443;SDS011;9350;53.176;8.194;2023-07-29T14:30:41;4.65;;;3.28;;
18443;SDS011;9350;53.176;8.194;2023-07-29T14:33:09;5.05;;;3.40;;
18443;SDS011;9350;53.176;8.194;2023-07-29T14:35:36;5.78;;;3.15;;
18443;SDS011;9350;53.176;8.194;2023-07-29T14:38:03;4.05;;;3.15;;
18443;SDS011;9350;53.176;8.194;2023-07-29T14:40:30;2.83;;;2.40;;
18443;SDS011;9350;53.176;8.194;2023-07-29T14:42:56;2.50;;;2.30;;
18443;SDS011;9350;53.176;8.194;2023-07-29T14:45:23;2.92;;;2.47;;
18443;SDS011;9350;53.176;8.194;2023-07-29T14:47:50;4.07;;;2.25;;
18443;SDS011;9350;53.176;8.194;2023-07-29T14:50:18;5.40;;;2.55;;
18443;SDS011;9350;53.176;8.194;2023-07-29T14:52:44;4.25;;;2.25;;
18443;SDS011;9350;53.176;8.194;2023-07-29T14:55:11;3.58;;;2.10;;